sensor_id;sensor_type;location;lat;lon;timestamp;pressure;altitude;pressure_sealevel;temperature
24740;BMP280;45234;48.148;17.128;2023-06-19T00:01:13;99897.03;;;19.95
24740;BMP280;45234;48.148;17.128;2023-06-19T00:03:40;99890.69;;;19.91
24740;BMP280;45234;48.148;17.128;2023-06-19T00:06:07;99889.66;;;19.87
24740;BMP280;45234;48.148;17.128;2023-06-19T00:08:34;99888.56;;;19.83
24740;BMP280;45234;48.148;17.128;2023-06-19T00:11:03;99888.56;;;19.83
24740;BMP280;45234;48.148;17.128;2023-06-19T00:13:30;99894.63;;;19.83
24740;BMP280;45234;48.148;17.128;2023-06-19T00:15:57;99887.53;;;19.79
24740;BMP280;45234;48.148;17.128;2023-06-19T00:18:28;99894.38;;;19.75
24740;BMP280;45234;48.148;17.128;2023-06-19T00:20:55;99893.56;;;19.74
24740;BMP280;45234;48.148;17.128;2023-06-19T00:23:23;99883.56;;;19.71
24740;BMP280;45234;48.148;17.128;2023-06-19T00:25:50;99881.19;;;19.70
24740;BMP280;45234;48.148;17.128;2023-06-19T00:28:17;99893.53;;;19.69
24740;BMP280;45234;48.148;17.128;2023-06-19T00:30:47;99887.50;;;19.69
24740;BMP280;45234;48.148;17.128;2023-06-19T00:33:14;99891.19;;;19.68
24740;BMP280;45234;48.148;17.128;2023-06-19T00:35:41;99894.63;;;19.68
24740;BMP280;45234;48.148;17.128;2023-06-19T00:38:09;99889.06;;;19.70
24740;BMP280;45234;48.148;17.128;2023-06-19T00:40:36;99888.28;;;19.69
24740;BMP280;45234;48.148;17.128;2023-06-19T00:43:03;99889.34;;;19.68
24740;BMP280;45234;48.148;17.128;2023-06-19T00:45:30;99883.56;;;19.66
24740;BMP280;45234;48.148;17.128;2023-06-19T00:47:59;99881.97;;;19.65
24740;BMP280;45234;48.148;17.128;2023-06-19T00:50:28;99871.16;;;19.61
24740;BMP280;45234;48.148;17.128;2023-06-19T00:52:59;99871.72;;;19.58
24740;BMP280;45234;48.148;17.128;2023-06-19T00:55:29;99878.00;;;19.57
24740;BMP280;45234;48.148;17.128;2023-06-19T00:57:58;99877.47;;;19.55
24740;BMP280;45234;48.148;17.128;2023-06-19T01:00:26;99874.59;;;19.57
24740;BMP280;45234;48.148;17.128;2023-06-19T01:02:52;99879.06;;;19.56
24740;BMP280;45234;48.148;17.128;2023-06-19T01:05:21;99881.19;;;19.54
24740;BMP280;45234;48.148;17.128;2023-06-19T01:10:36;99893.25;;;19.55
24740;BMP280;45234;48.148;17.128;2023-06-19T01:13:17;99882.72;;;19.55
24740;BMP280;45234;48.148;17.128;2023-06-19T01:15:47;99882.72;;;19.55
24740;BMP280;45234;48.148;17.128;2023-06-19T01:18:15;99884.31;;;19.56
24740;BMP280;45234;48.148;17.128;2023-06-19T01:20:43;99880.38;;;19.59
24740;BMP280;45234;48.148;17.128;2023-06-19T01:23:11;99884.84;;;19.58
24740;BMP280;45234;48.148;17.128;2023-06-19T01:25:39;99879.59;;;19.58
24740;BMP280;45234;48.148;17.128;2023-06-19T01:28:09;99882.22;;;19.58
24740;BMP280;45234;48.148;17.128;2023-06-19T01:30:39;99878.56;;;19.59
24740;BMP280;45234;48.148;17.128;2023-06-19T01:35:35;99877.47;;;19.60
24740;BMP280;45234;48.148;17.128;2023-06-19T01:38:03;99884.59;;;19.65
24740;BMP280;45234;48.148;17.128;2023-06-19T01:40:34;99877.22;;;19.62
24740;BMP280;45234;48.148;17.128;2023-06-19T01:43:02;99882.22;;;19.58
24740;BMP280;45234;48.148;17.128;2023-06-19T01:45:31;99886.94;;;19.61
24740;BMP280;45234;48.148;17.128;2023-06-19T01:48:00;99879.34;;;19.55
24740;BMP280;45234;48.148;17.128;2023-06-19T01:50:27;99883.25;;;19.57
24740;BMP280;45234;48.148;17.128;2023-06-19T01:52:55;99870.88;;;19.48
24740;BMP280;45234;48.148;17.128;2023-06-19T01:55:22;99876.13;;;19.48
24740;BMP280;45234;48.148;17.128;2023-06-19T01:57:49;99879.53;;;19.43
24740;BMP280;45234;48.148;17.128;2023-06-19T02:00:16;99878.47;;;19.39
24740;BMP280;45234;48.148;17.128;2023-06-19T02:02:44;99886.59;;;19.38
24740;BMP280;45234;48.148;17.128;2023-06-19T02:05:12;99881.09;;;19.34
24740;BMP280;45234;48.148;17.128;2023-06-19T02:07:40;99879.50;;;19.33
24740;BMP280;45234;48.148;17.128;2023-06-19T02:10:08;99885.25;;;19.30
24740;BMP280;45234;48.148;17.128;2023-06-19T02:12:36;99883.41;;;19.25
24740;BMP280;45234;48.148;17.128;2023-06-19T02:15:05;99887.88;;;19.25
24740;BMP280;45234;48.148;17.128;2023-06-19T02:17:34;99881.56;;;19.21
24740;BMP280;45234;48.148;17.128;2023-06-19T02:20:04;99876.81;;;19.18
24740;BMP280;45234;48.148;17.128;2023-06-19T02:22:35;99886.25;;;19.14
24740;BMP280;45234;48.148;17.128;2023-06-19T02:25:02;99877.59;;;19.13
24740;BMP280;45234;48.148;17.128;2023-06-19T02:27:31;99881.00;;;19.14
24740;BMP280;45234;48.148;17.128;2023-06-19T02:30:00;99875.50;;;19.10
24740;BMP280;45234;48.148;17.128;2023-06-19T02:32:33;99873.59;;;19.06
24740;BMP280;45234;48.148;17.128;2023-06-19T02:35:06;99875.69;;;19.04
24740;BMP280;45234;48.148;17.128;2023-06-19T02:37:36;99874.09;;;19.03
24740;BMP280;45234;48.148;17.128;2023-06-19T02:40:07;99872.22;;;18.98
24740;BMP280;45234;48.148;17.128;2023-06-19T02:42:36;99871.44;;;18.98
24740;BMP280;45234;48.148;17.128;2023-06-19T02:45:04;99869.88;;;18.97
24740;BMP280;45234;48.148;17.128;2023-06-19T02:47:40;99876.69;;;18.98
24740;BMP280;45234;48.148;17.128;2023-06-19T02:50:08;99880.09;;;18.93
24740;BMP280;45234;48.148;17.128;2023-06-19T02:52:36;99885.63;;;18.92
24740;BMP280;45234;48.148;17.128;2023-06-19T02:55:04;99877.41;;;18.88
24740;BMP280;45234;48.148;17.128;2023-06-19T02:57:31;99883.47;;;18.88
24740;BMP280;45234;48.148;17.128;2023-06-19T02:59:58;99885.56;;;18.86
24740;BMP280;45234;48.148;17.128;2023-06-19T03:02:26;99882.16;;;18.86
24740;BMP280;45234;48.148;17.128;2023-06-19T03:04:53;99881.09;;;18.87
24740;BMP280;45234;48.148;17.128;2023-06-19T03:07:21;99877.69;;;18.86
24740;BMP280;45234;48.148;17.128;2023-06-19T03:09:48;99877.41;;;18.83
24740;BMP280;45234;48.148;17.128;2023-06-19T03:12:15;99879.53;;;18.86
24740;BMP280;45234;48.148;17.128;2023-06-19T03:14:42;99867.44;;;18.85
24740;BMP280;45234;48.148;17.128;2023-06-19T03:17:09;99877.16;;;18.84
24740;BMP280;45234;48.148;17.128;2023-06-19T03:19:36;99871.63;;;18.81
24740;BMP280;45234;48.148;17.128;2023-06-19T03:22:03;99876.63;;;18.82
24740;BMP280;45234;48.148;17.128;2023-06-19T03:24:31;99875.28;;;18.80
24740;BMP280;45234;48.148;17.128;2023-06-19T03:27:11;99875.56;;;18.83
24740;BMP280;45234;48.148;17.128;2023-06-19T03:29:38;99875.56;;;18.83
24740;BMP280;45234;48.148;17.128;2023-06-19T03:32:07;99877.16;;;18.84
24740;BMP280;45234;48.148;17.128;2023-06-19T03:34:34;99888.44;;;18.85
24740;BMP280;45234;48.148;17.128;2023-06-19T03:37:06;99882.66;;;18.88
24740;BMP280;45234;48.148;17.128;2023-06-19T03:39:34;99885.06;;;18.90
24740;BMP280;45234;48.148;17.128;2023-06-19T03:42:08;99887.72;;;18.95
24740;BMP280;45234;48.148;17.128;2023-06-19T03:44:35;99885.13;;;19.00
24740;BMP280;45234;48.148;17.128;2023-06-19T03:47:02;99886.72;;;19.01
24740;BMP280;45234;48.148;17.128;2023-06-19T03:49:29;99885.66;;;19.07
24740;BMP280;45234;48.148;17.128;2023-06-19T03:51:56;99883.03;;;19.07
24740;BMP280;45234;48.148;17.128;2023-06-19T03:54:23;99883.63;;;19.14
24740;BMP280;45234;48.148;17.128;2023-06-19T03:56:51;99884.41;;;19.19
24740;BMP280;45234;48.148;17.128;2023-06-19T03:59:18;99883.94;;;19.22
24740;BMP280;45234;48.148;17.128;2023-06-19T04:01:45;99880.53;;;19.27
24740;BMP280;45234;48.148;17.128;2023-06-19T04:04:13;99877.66;;;19.39
24740;BMP280;45234;48.148;17.128;2023-06-19T04:06:39;99880.59;;;19.37
24740;BMP280;45234;48.148;17.128;2023-06-19T04:09:08;99874.28;;;19.43
24740;BMP280;45234;48.148;17.128;2023-06-19T04:11:36;99869.56;;;19.50
24740;BMP280;45234;48.148;17.128;2023-06-19T04:14:03;99877.47;;;19.55
24740;BMP280;45234;48.148;17.128;2023-06-19T04:16:30;99882.47;;;19.62
24740;BMP280;45234;48.148;17.128;2023-06-19T04:18:57;99882.50;;;19.67
24740;BMP280;45234;48.148;17.128;2023-06-19T04:21:24;99883.81;;;19.70
24740;BMP280;45234;48.148;17.128;2023-06-19T04:23:51;99882.00;;;19.75
24740;BMP280;45234;48.148;17.128;2023-06-19T04:26:18;99878.59;;;19.80
24740;BMP280;45234;48.148;17.128;2023-06-19T04:28:45;99880.97;;;19.86
24740;BMP280;45234;48.148;17.128;2023-06-19T04:31:12;99885.19;;;19.92
24740;BMP280;45234;48.148;17.128;2023-06-19T04:33:39;99887.03;;;20.02
24740;BMP280;45234;48.148;17.128;2023-06-19T04:36:08;99892.31;;;20.07
24740;BMP280;45234;48.148;17.128;2023-06-19T04:38:36;99896.00;;;20.11
24740;BMP280;45234;48.148;17.128;2023-06-19T04:41:03;99899.41;;;20.22
24740;BMP280;45234;48.148;17.128;2023-06-19T04:43:30;99900.22;;;20.27
24740;BMP280;45234;48.148;17.128;2023-06-19T04:45:57;99905.47;;;20.37
24740;BMP280;45234;48.148;17.128;2023-06-19T04:48:24;99904.94;;;20.51
24740;BMP280;45234;48.148;17.128;2023-06-19T04:50:53;99897.53;;;20.63
24740;BMP280;45234;48.148;17.128;2023-06-19T04:53:22;99910.72;;;20.73
24740;BMP280;45234;48.148;17.128;2023-06-19T04:55:49;99913.34;;;20.83
24740;BMP280;45234;48.148;17.128;2023-06-19T04:58:16;99914.09;;;20.94
24740;BMP280;45234;48.148;17.128;2023-06-19T05:00:43;99921.75;;;20.95
24740;BMP280;45234;48.148;17.128;2023-06-19T05:03:10;99922.25;;;20.97
24740;BMP280;45234;48.148;17.128;2023-06-19T05:05:40;99928.00;;;21.09
24740;BMP280;45234;48.148;17.128;2023-06-19T05:08:07;99923.28;;;21.11
24740;BMP280;45234;48.148;17.128;2023-06-19T05:10:34;99914.78;;;21.24
24740;BMP280;45234;48.148;17.128;2023-06-19T05:13:01;99926.88;;;21.36
24740;BMP280;45234;48.148;17.128;2023-06-19T05:15:28;99929.75;;;21.44
24740;BMP280;45234;48.148;17.128;2023-06-19T05:17:55;99926.25;;;21.54
24740;BMP280;45234;48.148;17.128;2023-06-19T05:20:22;99931.44;;;21.69
24740;BMP280;45234;48.148;17.128;2023-06-19T05:22:50;99938.25;;;21.80
24740;BMP280;45234;48.148;17.128;2023-06-19T05:25:17;99930.13;;;22.11
24740;BMP280;45234;48.148;17.128;2023-06-19T05:27:45;99935.00;;;22.56
24740;BMP280;45234;48.148;17.128;2023-06-19T05:30:12;99941.09;;;23.04
24740;BMP280;45234;48.148;17.128;2023-06-19T05:32:39;99947.09;;;23.90
24740;BMP280;45234;48.148;17.128;2023-06-19T05:35:06;99943.50;;;25.50
24740;BMP280;45234;48.148;17.128;2023-06-19T05:37:33;99950.56;;;26.69
24740;BMP280;45234;48.148;17.128;2023-06-19T05:40:00;99947.06;;;27.34
24740;BMP280;45234;48.148;17.128;2023-06-19T05:42:29;99954.88;;;28.58
24740;BMP280;45234;48.148;17.128;2023-06-19T05:44:56;99947.91;;;29.15
24740;BMP280;45234;48.148;17.128;2023-06-19T05:47:23;99945.13;;;29.24
24740;BMP280;45234;48.148;17.128;2023-06-19T05:49:52;99950.84;;;29.34
24740;BMP280;45234;48.148;17.128;2023-06-19T05:52:19;99953.53;;;29.67
24740;BMP280;45234;48.148;17.128;2023-06-19T05:54:48;99954.69;;;29.90
24740;BMP280;45234;48.148;17.128;2023-06-19T05:57:15;99955.13;;;29.92
24740;BMP280;45234;48.148;17.128;2023-06-19T05:59:43;99956.25;;;30.40
24740;BMP280;45234;48.148;17.128;2023-06-19T06:02:09;99960.00;;;30.75
24740;BMP280;45234;48.148;17.128;2023-06-19T06:04:36;99960.91;;;31.98
24740;BMP280;45234;48.148;17.128;2023-06-19T06:07:04;99962.75;;;32.82
24740;BMP280;45234;48.148;17.128;2023-06-19T06:09:31;99954.78;;;33.51
24740;BMP280;45234;48.148;17.128;2023-06-19T06:12:00;99955.97;;;34.28
24740;BMP280;45234;48.148;17.128;2023-06-19T06:14:27;99962.22;;;35.06
24740;BMP280;45234;48.148;17.128;2023-06-19T06:16:54;99964.88;;;35.43
24740;BMP280;45234;48.148;17.128;2023-06-19T06:19:21;99977.50;;;35.86
24740;BMP280;45234;48.148;17.128;2023-06-19T06:21:52;99975.69;;;36.01
24740;BMP280;45234;48.148;17.128;2023-06-19T06:24:18;99975.81;;;36.33
24740;BMP280;45234;48.148;17.128;2023-06-19T06:26:46;99974.47;;;35.98
24740;BMP280;45234;48.148;17.128;2023-06-19T06:29:12;99960.47;;;35.79
24740;BMP280;45234;48.148;17.128;2023-06-19T06:31:39;99970.56;;;35.89
24740;BMP280;45234;48.148;17.128;2023-06-19T06:34:08;99979.75;;;35.77
24740;BMP280;45234;48.148;17.128;2023-06-19T06:36:35;99972.66;;;35.52
24740;BMP280;45234;48.148;17.128;2023-06-19T06:39:07;99975.06;;;35.20
24740;BMP280;45234;48.148;17.128;2023-06-19T06:41:34;99970.75;;;35.12
24740;BMP280;45234;48.148;17.128;2023-06-19T06:44:05;99972.56;;;35.01
24740;BMP280;45234;48.148;17.128;2023-06-19T06:46:32;99968.81;;;34.42
24740;BMP280;45234;48.148;17.128;2023-06-19T06:48:59;99976.63;;;34.51
24740;BMP280;45234;48.148;17.128;2023-06-19T06:51:26;99975.38;;;34.15
24740;BMP280;45234;48.148;17.128;2023-06-19T06:53:53;99973.63;;;34.29
24740;BMP280;45234;48.148;17.128;2023-06-19T06:56:20;99987.94;;;34.63
24740;BMP280;45234;48.148;17.128;2023-06-19T06:58:47;99977.81;;;34.86
24740;BMP280;45234;48.148;17.128;2023-06-19T07:01:14;99980.97;;;35.36
24740;BMP280;45234;48.148;17.128;2023-06-19T07:03:41;99979.09;;;35.91
24740;BMP280;45234;48.148;17.128;2023-06-19T07:06:08;99980.44;;;36.25
24740;BMP280;45234;48.148;17.128;2023-06-19T07:08:35;99984.34;;;36.42
24740;BMP280;45234;48.148;17.128;2023-06-19T07:11:02;99983.13;;;36.29
24740;BMP280;45234;48.148;17.128;2023-06-19T07:13:29;99981.25;;;35.71
24740;BMP280;45234;48.148;17.128;2023-06-19T07:15:56;99982.66;;;35.11
24740;BMP280;45234;48.148;17.128;2023-06-19T07:18:25;99987.00;;;35.19
24740;BMP280;45234;48.148;17.128;2023-06-19T07:20:51;99982.50;;;35.33
24740;BMP280;45234;48.148;17.128;2023-06-19T07:23:18;99973.91;;;35.68
24740;BMP280;45234;48.148;17.128;2023-06-19T07:25:46;99979.34;;;35.24
24740;BMP280;45234;48.148;17.128;2023-06-19T07:28:14;99982.19;;;35.02
24740;BMP280;45234;48.148;17.128;2023-06-19T07:30:41;99985.16;;;34.89
24740;BMP280;45234;48.148;17.128;2023-06-19T07:33:08;99985.00;;;34.75
24740;BMP280;45234;48.148;17.128;2023-06-19T07:35:36;99991.44;;;35.04
24740;BMP280;45234;48.148;17.128;2023-06-19T07:38:03;99984.88;;;35.02
24740;BMP280;45234;48.148;17.128;2023-06-19T07:40:30;99976.19;;;34.49
24740;BMP280;45234;48.148;17.128;2023-06-19T07:42:57;99987.88;;;34.60
24740;BMP280;45234;48.148;17.128;2023-06-19T07:45:24;99983.50;;;34.48
24740;BMP280;45234;48.148;17.128;2023-06-19T07:47:55;99978.16;;;34.22
24740;BMP280;45234;48.148;17.128;2023-06-19T07:50:22;99980.47;;;33.48
24740;BMP280;45234;48.148;17.128;2023-06-19T07:52:53;99983.88;;;33.03
24740;BMP280;45234;48.148;17.128;2023-06-19T07:55:20;99988.03;;;33.20
24740;BMP280;45234;48.148;17.128;2023-06-19T07:57:47;99990.19;;;33.56
24740;BMP280;45234;48.148;17.128;2023-06-19T08:00:14;99989.91;;;33.61
24740;BMP280;45234;48.148;17.128;2023-06-19T08:02:41;99992.09;;;33.78
24740;BMP280;45234;48.148;17.128;2023-06-19T08:05:09;99988.88;;;33.92
24740;BMP280;45234;48.148;17.128;2023-06-19T08:07:37;99986.53;;;34.17
24740;BMP280;45234;48.148;17.128;2023-06-19T08:10:05;99983.44;;;34.15
24740;BMP280;45234;48.148;17.128;2023-06-19T08:12:41;99982.22;;;33.86
24740;BMP280;45234;48.148;17.128;2023-06-19T08:15:11;99981.00;;;33.34
24740;BMP280;45234;48.148;17.128;2023-06-19T08:17:43;99991.91;;;33.22
24740;BMP280;45234;48.148;17.128;2023-06-19T08:20:10;99981.72;;;33.31
24740;BMP280;45234;48.148;17.128;2023-06-19T08:22:37;99982.03;;;33.26
24740;BMP280;45234;48.148;17.128;2023-06-19T08:25:06;99979.06;;;33.12
24740;BMP280;45234;48.148;17.128;2023-06-19T08:27:33;99978.44;;;33.19
24740;BMP280;45234;48.148;17.128;2023-06-19T08:30:00;99970.97;;;33.54
24740;BMP280;45234;48.148;17.128;2023-06-19T08:32:31;99968.34;;;33.80
24740;BMP280;45234;48.148;17.128;2023-06-19T08:34:58;99969.22;;;33.88
24740;BMP280;45234;48.148;17.128;2023-06-19T08:37:25;99969.72;;;33.97
24740;BMP280;45234;48.148;17.128;2023-06-19T08:39:52;99963.97;;;33.99
24740;BMP280;45234;48.148;17.128;2023-06-19T08:42:19;99974.19;;;33.63
24740;BMP280;45234;48.148;17.128;2023-06-19T08:44:46;99960.75;;;33.18
24740;BMP280;45234;48.148;17.128;2023-06-19T08:47:13;99969.59;;;33.18
24740;BMP280;45234;48.148;17.128;2023-06-19T08:49:40;99974.72;;;33.27
24740;BMP280;45234;48.148;17.128;2023-06-19T08:52:09;99971.88;;;32.78
24740;BMP280;45234;48.148;17.128;2023-06-19T08:54:35;99964.00;;;32.31
24740;BMP280;45234;48.148;17.128;2023-06-19T08:57:11;99972.50;;;31.86
24740;BMP280;45234;48.148;17.128;2023-06-19T08:59:39;99977.06;;;32.17
24740;BMP280;45234;48.148;17.128;2023-06-19T09:02:06;99989.56;;;32.44
24740;BMP280;45234;48.148;17.128;2023-06-19T09:04:33;99987.28;;;32.27
24740;BMP280;45234;48.148;17.128;2023-06-19T09:07:03;99989.19;;;32.26
24740;BMP280;45234;48.148;17.128;2023-06-19T09:09:45;99996.81;;;32.24
24740;BMP280;45234;48.148;17.128;2023-06-19T09:12:15;99981.50;;;31.78
24740;BMP280;45234;48.148;17.128;2023-06-19T09:14:47;99988.47;;;31.98
24740;BMP280;45234;48.148;17.128;2023-06-19T09:17:19;99993.94;;;32.17
24740;BMP280;45234;48.148;17.128;2023-06-19T09:19:50;99990.47;;;32.17
24740;BMP280;45234;48.148;17.128;2023-06-19T09:22:18;99998.97;;;32.19
24740;BMP280;45234;48.148;17.128;2023-06-19T09:24:48;99992.31;;;32.13
24740;BMP280;45234;48.148;17.128;2023-06-19T09:27:18;99988.72;;;32.09
24740;BMP280;45234;48.148;17.128;2023-06-19T09:29:48;99983.72;;;32.23
24740;BMP280;45234;48.148;17.128;2023-06-19T09:32:17;99991.38;;;32.56
24740;BMP280;45234;48.148;17.128;2023-06-19T09:34:46;99987.25;;;32.43
24740;BMP280;45234;48.148;17.128;2023-06-19T09:37:13;99985.44;;;32.31
24740;BMP280;45234;48.148;17.128;2023-06-19T09:39:41;99988.03;;;32.43
24740;BMP280;45234;48.148;17.128;2023-06-19T09:42:11;99982.09;;;32.18
24740;BMP280;45234;48.148;17.128;2023-06-19T09:44:43;99990.66;;;31.93
24740;BMP280;45234;48.148;17.128;2023-06-19T09:47:20;99979.00;;;31.69
24740;BMP280;45234;48.148;17.128;2023-06-19T09:49:54;99977.41;;;31.53
24740;BMP280;45234;48.148;17.128;2023-06-19T09:52:22;99982.22;;;31.31
24740;BMP280;45234;48.148;17.128;2023-06-19T09:54:55;99983.25;;;31.27
24740;BMP280;45234;48.148;17.128;2023-06-19T09:57:22;99973.50;;;31.34
24740;BMP280;45234;48.148;17.128;2023-06-19T09:59:53;99967.97;;;31.43
24740;BMP280;45234;48.148;17.128;2023-06-19T10:02:22;99975.84;;;31.36
24740;BMP280;45234;48.148;17.128;2023-06-19T10:04:52;99975.56;;;31.25
24740;BMP280;45234;48.148;17.128;2023-06-19T10:07:21;99979.56;;;30.91
24740;BMP280;45234;48.148;17.128;2023-06-19T10:10:05;99982.53;;;30.50
24740;BMP280;45234;48.148;17.128;2023-06-19T10:15:19;99968.66;;;29.63
24740;BMP280;45234;48.148;17.128;2023-06-19T10:18:05;99976.25;;;29.20
24740;BMP280;45234;48.148;17.128;2023-06-19T10:23:16;99968.31;;;28.90
24740;BMP280;45234;48.148;17.128;2023-06-19T10:25:54;99969.09;;;28.91
24740;BMP280;45234;48.148;17.128;2023-06-19T10:28:32;99970.97;;;28.90
24740;BMP280;45234;48.148;17.128;2023-06-19T10:31:02;99972.19;;;29.02
24740;BMP280;45234;48.148;17.128;2023-06-19T10:33:32;99979.94;;;28.94
24740;BMP280;45234;48.148;17.128;2023-06-19T10:36:18;99976.50;;;28.65
24740;BMP280;45234;48.148;17.128;2023-06-19T10:38:46;99981.81;;;28.65
24740;BMP280;45234;48.148;17.128;2023-06-19T10:41:22;99975.28;;;29.04
24740;BMP280;45234;48.148;17.128;2023-06-19T10:44:06;99967.16;;;29.00
24740;BMP280;45234;48.148;17.128;2023-06-19T10:46:36;99971.47;;;29.13
24740;BMP280;45234;48.148;17.128;2023-06-19T10:49:04;99970.25;;;29.23
24740;BMP280;45234;48.148;17.128;2023-06-19T10:51:41;99974.59;;;28.94
24740;BMP280;45234;48.148;17.128;2023-06-19T10:54:10;99966.69;;;28.77
24740;BMP280;45234;48.148;17.128;2023-06-19T10:56:37;99970.91;;;28.78
24740;BMP280;45234;48.148;17.128;2023-06-19T10:59:06;99958.69;;;28.77
24740;BMP280;45234;48.148;17.128;2023-06-19T11:01:38;99962.34;;;28.93
24740;BMP280;45234;48.148;17.128;2023-06-19T11:04:13;99964.03;;;28.98
24740;BMP280;45234;48.148;17.128;2023-06-19T11:06:41;99955.59;;;29.17
24740;BMP280;45234;48.148;17.128;2023-06-19T11:09:12;99961.44;;;29.10
24740;BMP280;45234;48.148;17.128;2023-06-19T11:11:48;99950.47;;;29.03
24740;BMP280;45234;48.148;17.128;2023-06-19T11:14:16;99949.56;;;29.20
24740;BMP280;45234;48.148;17.128;2023-06-19T11:16:46;99946.94;;;29.32
24740;BMP280;45234;48.148;17.128;2023-06-19T11:19:18;99952.22;;;29.40
24740;BMP280;45234;48.148;17.128;2023-06-19T11:21:47;99954.38;;;29.47
24740;BMP280;45234;48.148;17.128;2023-06-19T11:24:16;99955.50;;;29.58
24740;BMP280;45234;48.148;17.128;2023-06-19T11:26:45;99952.38;;;29.56
24740;BMP280;45234;48.148;17.128;2023-06-19T11:29:19;99951.94;;;29.54
24740;BMP280;45234;48.148;17.128;2023-06-19T11:31:48;99948.66;;;29.69
24740;BMP280;45234;48.148;17.128;2023-06-19T11:34:16;99948.19;;;29.67
24740;BMP280;45234;48.148;17.128;2023-06-19T11:36:48;99950.63;;;29.72
24740;BMP280;45234;48.148;17.128;2023-06-19T11:39:17;99945.97;;;29.69
24740;BMP280;45234;48.148;17.128;2023-06-19T11:41:45;99937.28;;;29.60
24740;BMP280;45234;48.148;17.128;2023-06-19T11:44:12;99942.34;;;29.53
24740;BMP280;45234;48.148;17.128;2023-06-19T11:46:39;99947.91;;;29.48
24740;BMP280;45234;48.148;17.128;2023-06-19T11:49:16;99933.50;;;29.28
24740;BMP280;45234;48.148;17.128;2023-06-19T11:51:47;99936.50;;;29.27
24740;BMP280;45234;48.148;17.128;2023-06-19T11:54:15;99933.38;;;29.25
24740;BMP280;45234;48.148;17.128;2023-06-19T11:56:42;99929.38;;;29.31
24740;BMP280;45234;48.148;17.128;2023-06-19T11:59:10;99936.59;;;29.30
24740;BMP280;45234;48.148;17.128;2023-06-19T12:01:37;99929.13;;;29.24
24740;BMP280;45234;48.148;17.128;2023-06-19T12:04:06;99939.56;;;29.17
24740;BMP280;45234;48.148;17.128;2023-06-19T12:06:33;99927.06;;;29.09
24740;BMP280;45234;48.148;17.128;2023-06-19T12:09:02;99933.06;;;29.06
24740;BMP280;45234;48.148;17.128;2023-06-19T12:11:31;99930.56;;;29.00
24740;BMP280;45234;48.148;17.128;2023-06-19T12:13:58;99921.13;;;29.03
24740;BMP280;45234;48.148;17.128;2023-06-19T12:16:25;99928.28;;;29.11
24740;BMP280;45234;48.148;17.128;2023-06-19T12:18:53;99927.09;;;29.21
24740;BMP280;45234;48.148;17.128;2023-06-19T12:21:20;99924.03;;;29.31
24740;BMP280;45234;48.148;17.128;2023-06-19T12:24:03;99916.34;;;29.29
24740;BMP280;45234;48.148;17.128;2023-06-19T12:26:31;99925.41;;;29.37
24740;BMP280;45234;48.148;17.128;2023-06-19T12:29:05;99919.19;;;29.45
24740;BMP280;45234;48.148;17.128;2023-06-19T12:31:38;99927.00;;;29.50
24740;BMP280;45234;48.148;17.128;2023-06-19T12:34:06;99917.56;;;29.65
24740;BMP280;45234;48.148;17.128;2023-06-19T12:36:35;99923.25;;;29.75
24740;BMP280;45234;48.148;17.128;2023-06-19T12:39:02;99923.94;;;29.97
24740;BMP280;45234;48.148;17.128;2023-06-19T12:41:32;99923.06;;;30.17
24740;BMP280;45234;48.148;17.128;2023-06-19T12:43:59;99916.91;;;30.28
24740;BMP280;45234;48.148;17.128;2023-06-19T12:46:26;99911.66;;;30.44
24740;BMP280;45234;48.148;17.128;2023-06-19T12:48:53;99909.84;;;30.60
24740;BMP280;45234;48.148;17.128;2023-06-19T12:51:20;99898.94;;;30.65
24740;BMP280;45234;48.148;17.128;2023-06-19T12:53:47;99900.22;;;30.71
24740;BMP280;45234;48.148;17.128;2023-06-19T12:56:14;99895.06;;;30.78
24740;BMP280;45234;48.148;17.128;2023-06-19T12:58:41;99894.00;;;30.67
24740;BMP280;45234;48.148;17.128;2023-06-19T13:01:08;99899.63;;;30.78
24740;BMP280;45234;48.148;17.128;2023-06-19T13:03:35;99904.69;;;30.67
24740;BMP280;45234;48.148;17.128;2023-06-19T13:06:02;99886.47;;;30.57
24740;BMP280;45234;48.148;17.128;2023-06-19T13:08:29;99895.25;;;30.58
24740;BMP280;45234;48.148;17.128;2023-06-19T13:10:56;99888.47;;;30.48
24740;BMP280;45234;48.148;17.128;2023-06-19T13:13:23;99897.41;;;30.40
24740;BMP280;45234;48.148;17.128;2023-06-19T13:15:50;99888.19;;;30.25
24740;BMP280;45234;48.148;17.128;2023-06-19T13:18:18;99885.63;;;30.17
24740;BMP280;45234;48.148;17.128;2023-06-19T13:20:45;99886.06;;;30.19
24740;BMP280;45234;48.148;17.128;2023-06-19T13:23:14;99884.53;;;30.06
24740;BMP280;45234;48.148;17.128;2023-06-19T13:25:41;99888.97;;;30.02
24740;BMP280;45234;48.148;17.128;2023-06-19T13:28:08;99884.94;;;29.95
24740;BMP280;45234;48.148;17.128;2023-06-19T13:30:35;99878.97;;;29.86
24740;BMP280;45234;48.148;17.128;2023-06-19T13:33:03;99886.19;;;29.86
24740;BMP280;45234;48.148;17.128;2023-06-19T13:35:31;99894.88;;;29.83
24740;BMP280;45234;48.148;17.128;2023-06-19T13:37:58;99878.84;;;29.71
24740;BMP280;45234;48.148;17.128;2023-06-19T13:40:29;99891.44;;;29.82
24740;BMP280;45234;48.148;17.128;2023-06-19T13:42:55;99886.50;;;29.72
24740;BMP280;45234;48.148;17.128;2023-06-19T13:45:23;99892.53;;;29.69
24740;BMP280;45234;48.148;17.128;2023-06-19T13:47:49;99896.31;;;29.68
24740;BMP280;45234;48.148;17.128;2023-06-19T13:50:16;99897.91;;;29.69
24740;BMP280;45234;48.148;17.128;2023-06-19T13:52:48;99900.88;;;29.68
24740;BMP280;45234;48.148;17.128;2023-06-19T13:55:15;99901.78;;;29.72
24740;BMP280;45234;48.148;17.128;2023-06-19T13:57:42;99891.19;;;29.63
24740;BMP280;45234;48.148;17.128;2023-06-19T14:00:11;99893.41;;;29.61
24740;BMP280;45234;48.148;17.128;2023-06-19T14:02:39;99898.75;;;29.61
24740;BMP280;45234;48.148;17.128;2023-06-19T14:05:09;99894.53;;;29.60
24740;BMP280;45234;48.148;17.128;2023-06-19T14:07:36;99893.41;;;29.61
24740;BMP280;45234;48.148;17.128;2023-06-19T14:10:04;99892.63;;;29.61
24740;BMP280;45234;48.148;17.128;2023-06-19T14:12:31;99892.97;;;29.59
24740;BMP280;45234;48.148;17.128;2023-06-19T14:14:58;99894.19;;;29.62